createdAt,value
2024-01-15T00:02:05.004Z,64.10
2024-01-15T00:04:41.675Z,64.02
2024-01-15T00:07:11.408Z,63.86
2024-01-15T00:09:41.643Z,63.86
2024-01-15T00:12:10.791Z,63.76
2024-01-15T00:14:40.023Z,63.66
2024-01-15T00:17:09.340Z,63.70
2024-01-15T00:19:38.543Z,63.66
2024-01-15T00:22:07.642Z,63.45
2024-01-15T00:24:37.123Z,63.35
2024-01-15T00:27:06.226Z,63.40
2024-01-15T00:29:36.136Z,63.42
2024-01-15T00:32:05.818Z,63.38
2024-01-15T00:34:35.084Z,63.26
2024-01-15T00:37:04.461Z,63.16
2024-01-15T00:39:33.466Z,63.25
2024-01-15T00:42:02.681Z,63.28
2024-01-15T00:44:31.853Z,63.25
2024-01-15T00:47:00.795Z,63.25
2024-01-15T00:49:29.763Z,63.15
2024-01-15T00:51:59.135Z,63.06
2024-01-15T00:54:28.710Z,62.97
2024-01-15T00:56:57.644Z,63.06
2024-01-15T00:59:26.473Z,62.94
2024-01-15T01:01:58.053Z,62.99
2024-01-15T01:04:27.298Z,63.04
2024-01-15T01:06:56.556Z,62.95
2024-01-15T01:09:26.305Z,62.94
2024-01-15T01:11:55.358Z,63.12
2024-01-15T01:14:24.421Z,62.81
2024-01-15T01:16:53.555Z,62.73
2024-01-15T01:19:22.701Z,62.86
2024-01-15T01:21:52.885Z,62.93
2024-01-15T01:24:21.781Z,63.13
2024-01-15T01:26:50.848Z,63.05
2024-01-15T01:29:20.062Z,63.01
2024-01-15T01:31:49.055Z,62.91
2024-01-15T01:34:18.681Z,62.92
2024-01-15T01:36:47.765Z,63.06
2024-01-15T01:39:16.850Z,62.95
2024-01-15T01:41:45.854Z,62.94
2024-01-15T01:44:14.825Z,62.73
2024-01-15T01:46:43.917Z,62.88
2024-01-15T01:49:13.326Z,62.89
2024-01-15T01:51:42.364Z,62.81
2024-01-15T01:54:14.156Z,62.72
2024-01-15T01:56:44.128Z,62.67
2024-01-15T01:59:13.668Z,62.59
2024-01-15T02:01:43.657Z,62.43
2024-01-15T02:04:19.791Z,62.28
2024-01-15T02:06:52.260Z,62.29
2024-01-15T02:09:21.570Z,62.14
2024-01-15T02:11:50.948Z,61.95
2024-01-15T02:14:19.958Z,61.83
2024-01-15T02:16:48.916Z,61.89
2024-01-15T02:19:19.742Z,61.80
2024-01-15T02:21:49.076Z,61.63
2024-01-15T02:24:18.150Z,61.49
2024-01-15T02:26:47.273Z,61.47
2024-01-15T02:29:17.225Z,61.28
2024-01-15T02:31:46.533Z,60.98
2024-01-15T02:34:15.930Z,61.05
2024-01-15T02:36:45.281Z,61.09
2024-01-15T02:39:14.385Z,61.01
2024-01-15T02:41:43.432Z,61.01
2024-01-15T02:44:12.751Z,60.92
2024-01-15T02:46:41.798Z,60.86
2024-01-15T02:49:10.679Z,60.69
2024-01-15T02:51:39.671Z,60.80
2024-01-15T02:54:08.882Z,60.79
2024-01-15T02:56:37.857Z,60.81
2024-01-15T02:59:06.843Z,60.82
2024-01-15T03:01:35.908Z,60.87
2024-01-15T03:04:05.100Z,60.98
2024-01-15T03:06:34.193Z,60.99
2024-01-15T03:09:05.140Z,61.06
2024-01-15T03:11:40.872Z,61.27
2024-01-15T03:14:09.850Z,61.16
2024-01-15T03:16:38.821Z,61.05
2024-01-15T03:19:07.920Z,61.08
2024-01-15T03:21:36.910Z,61.16
2024-01-15T03:24:06.074Z,61.06
2024-01-15T03:26:35.120Z,60.92
2024-01-15T03:29:04.225Z,61.05
2024-01-15T03:31:33.483Z,61.00
2024-01-15T03:34:02.666Z,61.05
2024-01-15T03:36:34.698Z,60.97
2024-01-15T03:39:04.221Z,60.94
2024-01-15T03:41:33.053Z,60.90
2024-01-15T03:44:02.878Z,60.87
2024-01-15T03:46:32.776Z,60.73
2024-01-15T03:49:01.889Z,60.69
2024-01-15T03:51:30.897Z,60.72
2024-01-15T03:53:59.761Z,60.74
2024-01-15T03:56:28.857Z,60.64
2024-01-15T03:58:57.839Z,60.64
2024-01-15T04:01:26.861Z,60.58
2024-01-15T04:03:56.624Z,60.60
2024-01-15T04:06:25.893Z,60.45
2024-01-15T04:08:54.941Z,60.38
2024-01-15T04:11:23.964Z,60.25
2024-01-15T04:13:52.845Z,60.19
2024-01-15T04:16:21.812Z,60.13
2024-01-15T04:18:50.842Z,59.96
2024-01-15T04:21:20.212Z,59.81
2024-01-15T04:23:49.144Z,59.74
2024-01-15T04:26:18.199Z,59.56
2024-01-15T04:28:48.222Z,59.53
2024-01-15T04:31:25.846Z,59.44
2024-01-15T04:33:55.602Z,59.26
2024-01-15T04:36:24.741Z,59.22
2024-01-15T04:38:54.096Z,58.76
2024-01-15T04:41:23.065Z,58.96
2024-01-15T04:43:52.054Z,58.88
2024-01-15T04:46:21.211Z,58.75
2024-01-15T04:48:50.144Z,58.82
2024-01-15T04:51:19.304Z,58.71
2024-01-15T04:53:48.347Z,58.61
2024-01-15T04:56:17.247Z,58.45
2024-01-15T04:58:46.087Z,58.45
2024-01-15T05:01:18.161Z,58.49
2024-01-15T05:03:47.310Z,58.41
2024-01-15T05:06:16.399Z,58.40
2024-01-15T05:08:45.346Z,58.33
2024-01-15T05:11:14.264Z,58.23
2024-01-15T05:13:43.168Z,58.36
2024-01-15T05:16:12.058Z,58.41
2024-01-15T05:18:43.684Z,58.52
2024-01-15T05:21:14.544Z,58.34
2024-01-15T05:23:45.072Z,58.42
2024-01-15T05:29:29.500Z,58.36
2024-01-15T05:32:01.882Z,58.24
2024-01-15T05:34:31.837Z,58.28
2024-01-15T05:37:01.709Z,58.27
2024-01-15T05:39:30.713Z,58.24
2024-01-15T05:42:00.915Z,58.23
2024-01-15T05:44:30.149Z,58.33
2024-01-15T05:46:59.109Z,58.29
2024-01-15T05:49:28.186Z,58.47
2024-01-15T05:51:57.428Z,58.52
2024-01-15T05:54:26.459Z,58.62
2024-01-15T05:56:55.386Z,58.54
2024-01-15T05:59:24.803Z,58.53
2024-01-15T06:01:53.943Z,58.49
2024-01-15T06:04:23.290Z,58.59
2024-01-15T06:06:52.301Z,58.69
2024-01-15T06:09:21.288Z,58.70
2024-01-15T06:11:50.597Z,58.71
2024-01-15T06:14:19.490Z,58.76
2024-01-15T06:16:48.382Z,58.70
2024-01-15T06:19:17.324Z,58.90
2024-01-15T06:21:46.577Z,58.93
2024-01-15T06:24:16.637Z,58.85
2024-01-15T06:26:45.788Z,58.85
2024-01-15T06:29:14.806Z,59.00
2024-01-15T06:31:43.802Z,59.04
2024-01-15T06:34:13.774Z,59.06
2024-01-15T06:36:43.075Z,59.12
2024-01-15T06:39:12.495Z,59.07
2024-01-15T06:41:45.128Z,59.09
2024-01-15T06:44:14.629Z,59.05
2024-01-15T06:46:45.148Z,59.20
2024-01-15T06:49:14.252Z,59.00
2024-01-15T06:51:44.671Z,59.01
2024-01-15T06:54:14.615Z,59.16
2024-01-15T06:56:43.933Z,59.18
2024-01-15T06:59:14.621Z,59.22
2024-01-15T07:01:45.000Z,59.22
2024-01-15T07:04:14.920Z,59.21
2024-01-15T07:06:44.272Z,59.46
2024-01-15T07:09:13.401Z,59.34
2024-01-15T07:11:48.122Z,59.32
2024-01-15T07:14:16.988Z,59.13
2024-01-15T07:16:48.285Z,59.20
2024-01-15T07:19:18.481Z,59.36
2024-01-15T07:21:47.523Z,59.03
2024-01-15T07:24:16.802Z,58.89
2024-01-15T07:26:46.152Z,58.73
2024-01-15T07:29:15.246Z,58.82
2024-01-15T07:31:53.571Z,58.92
2024-01-15T07:34:23.919Z,58.68
2024-01-15T07:36:53.717Z,58.81
2024-01-15T07:39:25.043Z,58.50
2024-01-15T07:41:54.163Z,58.75
2024-01-15T07:44:23.171Z,58.70
2024-01-15T07:46:52.176Z,58.56
2024-01-15T07:49:21.843Z,58.68
2024-01-15T07:51:51.589Z,58.69
2024-01-15T07:54:20.604Z,58.72
2024-01-15T07:56:57.183Z,58.67
2024-01-15T07:59:26.571Z,58.69
2024-01-15T08:01:55.810Z,58.53
2024-01-15T08:04:25.153Z,58.51
2024-01-15T08:06:54.786Z,58.43
2024-01-15T08:09:24.016Z,58.71
2024-01-15T08:11:53.308Z,58.66
2024-01-15T08:14:22.530Z,58.63
2024-01-15T08:16:52.510Z,58.51
2024-01-15T08:19:21.747Z,58.48
2024-01-15T08:21:50.853Z,58.40
2024-01-15T08:24:20.088Z,58.37
2024-01-15T08:26:49.581Z,58.30
2024-01-15T08:29:20.330Z,58.29
2024-01-15T08:31:50.772Z,58.39
2024-01-15T08:34:20.239Z,58.21
2024-01-15T08:36:49.471Z,58.38
2024-01-15T08:39:19.860Z,58.45
2024-01-15T08:41:49.201Z,58.53
2024-01-15T08:44:18.191Z,58.37
2024-01-15T08:46:47.489Z,58.55
2024-01-15T08:49:16.601Z,58.32
2024-01-15T08:51:46.460Z,58.41
2024-01-15T08:54:16.103Z,57.81
2024-01-15T08:56:45.450Z,57.63
2024-01-15T08:59:17.679Z,57.46
2024-01-15T09:01:46.907Z,57.09
2024-01-15T09:04:16.949Z,56.88
2024-01-15T09:06:49.659Z,56.29
2024-01-15T09:09:19.148Z,56.04
2024-01-15T09:11:48.354Z,55.78
2024-01-15T09:14:21.834Z,55.95
2024-01-15T09:16:55.652Z,56.01
2024-01-15T09:19:25.130Z,55.83
2024-01-15T09:21:54.296Z,55.42
2024-01-15T09:24:27.740Z,55.50
2024-01-15T09:26:58.216Z,55.43
2024-01-15T09:29:27.467Z,55.41
2024-01-15T09:31:57.100Z,55.82
2024-01-15T09:34:26.351Z,55.82
2024-01-15T09:36:55.647Z,55.70
2024-01-15T09:39:24.911Z,55.99
2024-01-15T09:41:57.578Z,56.56
2024-01-15T09:44:28.332Z,57.08
2024-01-15T09:46:58.930Z,57.89
2024-01-15T09:49:28.524Z,58.30
2024-01-15T09:52:06.494Z,58.18
2024-01-15T09:54:41.848Z,57.85
2024-01-15T09:57:11.026Z,57.92
2024-01-15T09:59:42.365Z,57.82
2024-01-15T10:02:18.687Z,57.72
2024-01-15T10:04:47.917Z,57.34
2024-01-15T10:07:20.667Z,57.28
2024-01-15T10:09:49.985Z,57.77
2024-01-15T10:12:19.222Z,57.36
2024-01-15T10:14:48.188Z,57.42
2024-01-15T10:17:17.427Z,57.60
2024-01-15T10:19:50.838Z,58.01
2024-01-15T10:22:20.462Z,58.15
2024-01-15T10:24:49.990Z,58.30
2024-01-15T10:27:19.161Z,58.33
2024-01-15T10:29:48.216Z,58.67
2024-01-15T10:32:17.567Z,58.69
2024-01-15T10:34:46.941Z,58.63
2024-01-15T10:37:17.086Z,58.44
2024-01-15T10:39:48.740Z,58.69
2024-01-15T10:42:19.303Z,58.75
2024-01-15T10:44:48.937Z,58.44
2024-01-15T10:47:17.949Z,58.18
2024-01-15T10:49:47.837Z,57.80
2024-01-15T10:52:17.210Z,57.57
2024-01-15T10:54:47.906Z,57.22
2024-01-15T10:57:18.745Z,57.05
2024-01-15T10:59:47.915Z,57.09
2024-01-15T11:02:17.277Z,56.82
2024-01-15T11:04:46.766Z,56.81
2024-01-15T11:07:16.528Z,56.48
2024-01-15T11:09:48.037Z,56.65
2024-01-15T11:12:21.367Z,56.54
2024-01-15T11:14:51.504Z,56.64
2024-01-15T11:17:20.698Z,56.70
2024-01-15T11:19:52.851Z,56.93
2024-01-15T11:22:32.053Z,56.80
2024-01-15T11:25:14.987Z,56.40
2024-01-15T11:27:54.489Z,56.17
2024-01-15T11:30:28.018Z,55.66
2024-01-15T11:32:57.224Z,55.26
2024-01-15T11:35:52.465Z,55.30
2024-01-15T11:38:30.953Z,55.33
2024-01-15T11:41:01.682Z,55.30
2024-01-15T11:43:33.193Z,55.14
2024-01-15T11:46:05.370Z,54.93
2024-01-15T11:48:46.813Z,54.85
2024-01-15T11:51:20.056Z,54.67
2024-01-15T11:53:50.596Z,54.51
2024-01-15T11:56:23.016Z,54.12
2024-01-15T11:58:52.899Z,54.16
2024-01-15T12:01:22.976Z,54.34
2024-01-15T12:03:52.035Z,54.41
2024-01-15T12:06:21.080Z,54.44
2024-01-15T12:08:49.973Z,54.49
2024-01-15T12:11:22.450Z,54.44
2024-01-15T12:13:53.935Z,54.43
2024-01-15T12:16:23.012Z,54.40
2024-01-15T12:18:52.382Z,54.50
2024-01-15T12:21:21.706Z,54.72
2024-01-15T12:23:51.115Z,54.51
2024-01-15T12:26:20.341Z,54.47
2024-01-15T12:28:54.920Z,54.41
2024-01-15T12:31:25.475Z,54.48
2024-01-15T12:33:54.563Z,54.34
2024-01-15T12:36:23.976Z,53.90
2024-01-15T12:38:53.386Z,54.25
2024-01-15T12:41:22.820Z,53.89
2024-01-15T12:43:52.023Z,54.05
2024-01-15T12:46:21.232Z,54.18
2024-01-15T12:48:51.823Z,54.32
2024-01-15T12:51:27.469Z,54.22
2024-01-15T12:53:56.623Z,54.30
2024-01-15T12:56:25.773Z,53.95
2024-01-15T12:58:54.842Z,53.92
2024-01-15T13:01:24.133Z,53.87
2024-01-15T13:03:53.535Z,54.19
2024-01-15T13:06:23.063Z,54.11
2024-01-15T13:08:52.223Z,53.81
2024-01-15T13:11:21.420Z,54.02
2024-01-15T13:13:50.610Z,53.91
2024-01-15T13:16:24.885Z,54.01
2024-01-15T13:18:55.516Z,54.06
2024-01-15T13:21:24.771Z,54.29
2024-01-15T13:23:53.915Z,54.27
2024-01-15T13:26:23.414Z,54.15
2024-01-15T13:28:52.614Z,54.45
2024-01-15T13:31:22.455Z,54.38
2024-01-15T13:33:51.738Z,54.43
2024-01-15T13:36:23.125Z,54.56
2024-01-15T13:38:54.716Z,54.55
2024-01-15T13:41:28.711Z,54.55
2024-01-15T13:43:58.016Z,54.57
2024-01-15T13:46:31.065Z,54.60
2024-01-15T13:49:00.569Z,54.79
2024-01-15T13:51:30.038Z,54.58
2024-01-15T13:53:59.462Z,54.69
2024-01-15T13:56:33.192Z,54.70
2024-01-15T13:59:02.678Z,54.86
2024-01-15T14:01:32.732Z,54.90
2024-01-15T14:04:02.418Z,54.82
2024-01-15T14:06:31.851Z,54.90
2024-01-15T14:09:01.084Z,55.10
2024-01-15T14:11:30.474Z,55.09
2024-01-15T14:13:59.684Z,55.06
2024-01-15T14:16:28.925Z,55.09
2024-01-15T14:18:58.409Z,55.23
2024-01-15T14:21:27.915Z,55.24
2024-01-15T14:23:57.218Z,55.29
2024-01-15T14:26:26.452Z,55.24
2024-01-15T14:28:55.874Z,55.33
2024-01-15T14:31:30.869Z,55.28
2024-01-15T14:34:01.177Z,55.39
2024-01-15T14:36:31.460Z,55.42
2024-01-15T14:39:00.971Z,55.57
2024-01-15T14:41:31.366Z,55.51
2024-01-15T14:44:00.753Z,55.53
2024-01-15T14:46:31.619Z,55.47
2024-01-15T14:49:00.969Z,55.50
2024-01-15T14:51:30.387Z,55.48
2024-01-15T14:53:59.857Z,55.53
2024-01-15T14:56:29.140Z,55.57
2024-01-15T14:58:58.459Z,55.59
2024-01-15T15:01:27.749Z,55.69
2024-01-15T15:03:57.337Z,55.81
2024-01-15T15:06:29.799Z,55.98
2024-01-15T15:09:01.210Z,56.05
2024-01-15T15:11:30.669Z,56.01
2024-01-15T15:14:01.839Z,56.05
2024-01-15T15:16:31.686Z,56.12
2024-01-15T15:19:00.996Z,56.23
2024-01-15T15:21:31.148Z,56.38
2024-01-15T15:24:01.955Z,56.49
2024-01-15T15:26:31.485Z,56.63
2024-01-15T15:29:00.704Z,56.69
2024-01-15T15:31:30.251Z,56.83
2024-01-15T15:33:59.772Z,56.89
2024-01-15T15:36:29.130Z,56.93
2024-01-15T15:38:59.642Z,56.92
2024-01-15T15:41:32.425Z,56.95
2024-01-15T15:44:02.058Z,57.09
2024-01-15T15:46:31.255Z,57.19
2024-01-15T15:49:00.984Z,57.20
2024-01-15T15:51:31.095Z,57.28
2024-01-15T15:54:00.426Z,57.22
2024-01-15T15:56:30.229Z,57.33
2024-01-15T15:58:59.617Z,57.42
2024-01-15T16:01:29.168Z,57.47
2024-01-15T16:03:58.596Z,57.46
2024-01-15T16:06:29.288Z,57.48
2024-01-15T16:08:58.616Z,57.48
2024-01-15T16:11:27.934Z,57.58
2024-01-15T16:13:58.171Z,57.58
2024-01-15T16:23:11.191Z,57.64
2024-01-15T16:23:24.435Z,57.65
2024-01-15T16:23:40.280Z,57.80
2024-01-15T16:24:59.574Z,57.89
2024-01-15T16:27:31.439Z,58.02
2024-01-15T16:30:01.254Z,58.12
2024-01-15T16:32:31.069Z,57.94
2024-01-15T16:35:01.183Z,58.05
2024-01-15T16:37:30.571Z,58.12
2024-01-15T16:39:59.710Z,58.14
2024-01-15T16:42:29.242Z,58.12
2024-01-15T16:44:58.626Z,58.26
2024-01-15T16:47:30.561Z,58.28
2024-01-15T16:50:00.460Z,58.22
2024-01-15T16:52:29.768Z,58.36
2024-01-15T16:54:59.190Z,58.35
2024-01-15T16:57:28.815Z,58.56
2024-01-15T16:59:58.325Z,58.54
2024-01-15T17:02:27.816Z,58.48
2024-01-15T17:04:57.510Z,58.55
2024-01-15T17:07:26.967Z,58.52
2024-01-15T17:09:56.533Z,58.60
2024-01-15T17:12:25.923Z,58.58
2024-01-15T17:14:55.101Z,58.52
2024-01-15T17:17:24.536Z,58.57
2024-01-15T17:19:55.426Z,58.63
2024-01-15T17:22:24.865Z,58.65
2024-01-15T17:24:54.277Z,58.71
2024-01-15T17:27:23.705Z,58.79
2024-01-15T17:29:54.484Z,58.79
2024-01-15T17:32:23.974Z,58.88
2024-01-15T17:34:53.615Z,58.89
2024-01-15T17:37:22.599Z,58.93
2024-01-15T17:39:51.721Z,59.00
2024-01-15T17:42:20.850Z,58.90
2024-01-15T17:44:50.211Z,58.95
2024-01-15T17:47:19.739Z,58.97
2024-01-15T17:49:49.709Z,58.98
2024-01-15T17:52:19.141Z,59.05
2024-01-15T17:54:48.329Z,59.29
2024-01-15T17:57:17.774Z,59.37
2024-01-15T17:59:47.364Z,59.34
2024-01-15T18:02:16.928Z,59.37
2024-01-15T18:04:46.386Z,59.43
2024-01-15T18:07:15.764Z,59.61
2024-01-15T18:09:45.495Z,59.59
2024-01-15T18:12:15.781Z,59.65
2024-01-15T18:14:45.589Z,59.69
2024-01-15T18:17:15.578Z,59.69
2024-01-15T18:19:45.494Z,59.81
2024-01-15T18:22:14.916Z,59.92
2024-01-15T18:24:44.537Z,59.98
2024-01-15T18:27:14.657Z,60.06
2024-01-15T18:29:45.348Z,60.54
2024-01-15T18:32:14.744Z,60.74
2024-01-15T18:34:44.513Z,61.07
2024-01-15T18:37:14.178Z,61.32
2024-01-15T18:39:46.708Z,61.75
2024-01-15T18:42:16.186Z,61.93
2024-01-15T18:44:45.641Z,62.21
2024-01-15T18:47:15.026Z,62.27
2024-01-15T18:49:44.845Z,62.51
2024-01-15T18:52:16.058Z,62.94
2024-01-15T18:54:45.607Z,63.25
2024-01-15T18:57:15.694Z,63.57
2024-01-15T18:59:47.771Z,63.94
2024-01-15T19:02:17.766Z,64.26
2024-01-15T19:04:47.730Z,64.74
2024-01-15T19:07:17.203Z,64.96
2024-01-15T19:09:46.467Z,65.23
2024-01-15T19:12:15.802Z,65.58
2024-01-15T19:14:45.454Z,65.78
2024-01-15T19:17:14.771Z,65.85
2024-01-15T19:19:45.105Z,66.01
2024-01-15T19:22:14.636Z,66.09
2024-01-15T19:24:45.304Z,66.43
2024-01-15T19:27:15.274Z,66.47
2024-01-15T19:29:44.511Z,66.60
2024-01-15T19:32:13.874Z,66.83
2024-01-15T19:34:43.255Z,66.93
2024-01-15T19:37:12.632Z,67.06
2024-01-15T19:39:42.342Z,67.07
2024-01-15T19:42:12.676Z,66.99
2024-01-15T19:44:41.904Z,67.05
2024-01-15T19:47:11.229Z,67.14
2024-01-15T19:49:45.052Z,66.99
2024-01-15T19:52:14.492Z,66.80
2024-01-15T19:54:43.898Z,66.76
2024-01-15T19:57:12.972Z,66.70
2024-01-15T19:59:42.534Z,66.63
2024-01-15T20:02:12.234Z,66.50
2024-01-15T20:04:41.732Z,66.33
2024-01-15T20:07:11.877Z,66.24
2024-01-15T20:09:42.842Z,66.16
2024-01-15T20:12:12.412Z,66.14
2024-01-15T20:14:41.784Z,66.17
2024-01-15T20:17:11.255Z,66.11
2024-01-15T20:19:41.260Z,65.87
2024-01-15T20:22:10.695Z,65.81
2024-01-15T20:24:40.012Z,65.83
2024-01-15T20:27:09.368Z,65.76
2024-01-15T20:29:39.077Z,65.72
2024-01-15T20:32:08.527Z,65.59
2024-01-15T20:34:40.569Z,65.42
2024-01-15T20:37:09.913Z,65.19
2024-01-15T20:39:39.203Z,64.99
2024-01-15T20:42:08.489Z,64.64
2024-01-15T20:44:37.674Z,64.66
2024-01-15T20:47:06.896Z,64.27
2024-01-15T20:49:36.681Z,64.29
2024-01-15T20:52:07.173Z,64.39
2024-01-15T20:54:36.230Z,64.48
2024-01-15T20:57:05.993Z,64.60
2024-01-15T20:59:35.268Z,64.59
2024-01-15T21:02:04.633Z,64.65
2024-01-15T21:04:34.038Z,64.73
2024-01-15T21:07:06.433Z,64.92
2024-01-15T21:09:35.734Z,65.20
2024-01-15T21:12:08.690Z,65.36
2024-01-15T21:14:40.020Z,65.46
2024-01-15T21:17:09.424Z,65.51
2024-01-15T21:19:39.126Z,65.59
2024-01-15T21:22:09.498Z,65.67
2024-01-15T21:24:41.649Z,65.71
2024-01-15T21:27:10.994Z,65.83
2024-01-15T21:29:40.274Z,65.68
2024-01-15T21:32:10.191Z,65.58
2024-01-15T21:34:39.736Z,65.44
2024-01-15T21:37:09.306Z,65.43
2024-01-15T21:39:39.891Z,65.17
2024-01-15T21:42:15.998Z,65.24
2024-01-15T21:44:46.813Z,65.14
2024-01-15T21:47:16.243Z,65.10
2024-01-15T21:49:47.371Z,64.90
2024-01-15T21:52:16.525Z,64.84
2024-01-15T21:54:45.839Z,64.68
2024-01-15T21:57:15.070Z,64.46
2024-01-15T21:59:44.822Z,64.38
2024-01-15T22:02:14.749Z,64.19
2024-01-15T22:04:44.984Z,63.99
2024-01-15T22:07:14.379Z,64.03
2024-01-15T22:09:43.498Z,63.91
2024-01-15T22:12:13.137Z,63.80
2024-01-15T22:14:42.729Z,64.01
2024-01-15T22:17:13.181Z,64.14
2024-01-15T22:19:42.462Z,64.22
2024-01-15T22:22:12.694Z,64.23
2024-01-15T22:24:41.867Z,64.46
2024-01-15T22:27:15.024Z,64.40
2024-01-15T22:29:44.203Z,64.71
2024-01-15T22:32:13.714Z,64.77
2024-01-15T22:34:43.452Z,65.06
2024-01-15T22:37:12.785Z,65.29
2024-01-15T22:39:41.977Z,65.33
2024-01-15T22:42:11.157Z,65.62
2024-01-15T22:44:40.627Z,65.57
2024-01-15T22:47:09.997Z,65.84
2024-01-15T22:49:39.116Z,65.72
2024-01-15T22:52:08.205Z,65.73
2024-01-15T22:54:37.375Z,65.87
2024-01-15T22:57:07.511Z,65.82
2024-01-15T22:59:37.758Z,65.89
2024-01-15T23:02:08.076Z,65.80
2024-01-15T23:04:42.719Z,65.64
2024-01-15T23:07:12.199Z,65.74
2024-01-15T23:09:42.492Z,65.70
2024-01-15T23:12:12.199Z,66.05
2024-01-15T23:14:41.328Z,66.29
2024-01-15T23:17:10.298Z,66.53
2024-01-15T23:19:39.390Z,66.77
2024-01-15T23:22:08.264Z,67.08
2024-01-15T23:24:37.232Z,67.22
2024-01-15T23:27:06.782Z,67.55
2024-01-15T23:29:36.293Z,67.83
2024-01-15T23:32:05.969Z,68.11
2024-01-15T23:34:37.089Z,68.15
2024-01-15T23:37:05.973Z,68.38
2024-01-15T23:39:34.929Z,68.67
2024-01-15T23:42:04.066Z,68.87
2024-01-15T23:44:33.419Z,69.25
2024-01-15T23:47:02.674Z,69.53
2024-01-15T23:49:31.620Z,69.59
2024-01-15T23:52:00.702Z,69.70
2024-01-15T23:54:29.772Z,69.91
2024-01-15T23:56:59.320Z,70.19
2024-01-15T23:59:28.404Z,70.24
